< < Back
Terminal Aerodrome Forecast


Current Version              Previous Versions:   1  2  3  4  5  6  7  8  9  

Terminal Aerodrome Forecast

895
FTUS42 KGSP 030536
TAFAND
TAF
KAND 030536Z 0306/0406 00000KT P6SM BKN120
     FM031500 02005KT P6SM SCT060 BKN150
     FM032000 29005KT P6SM SCT070 BKN200
     FM040100 04003KT P6SM SCT150=

Latest METAR

358
SAUS70 KWBC 040600 RRA
MTRAND
METAR KAND 040556Z AUTO 24003KT 10SM CLR 22/20 A2996 RMK AO2 SLP132
T02220200 10278 20217 55001


USA.gov is the U.S. government's official web portal to all federal, state and local government web resources and services.